createdAt,value
2022-11-08T00:00:47.557Z,9.53
2022-11-08T00:01:44.161Z,9.50
2022-11-08T00:02:40.848Z,9.55
2022-11-08T00:03:37.425Z,9.48
2022-11-08T00:04:34.789Z,9.31
2022-11-08T00:05:49.895Z,9.47
2022-11-08T00:07:05.696Z,9.36
2022-11-08T00:08:21.745Z,9.35
2022-11-08T00:09:36.767Z,9.34
2022-11-08T00:10:51.890Z,9.39
2022-11-08T00:12:06.951Z,9.32
2022-11-08T00:13:24.807Z,9.33
2022-11-08T00:14:21.232Z,9.40
2022-11-08T00:15:17.783Z,9.34
2022-11-08T00:16:14.241Z,9.24
2022-11-08T00:17:10.801Z,9.18
2022-11-08T00:18:07.552Z,9.19
2022-11-08T00:19:04.035Z,9.17
2022-11-08T00:20:00.602Z,9.13
2022-11-08T00:21:00.811Z,9.26
2022-11-08T00:21:57.320Z,9.51
2022-11-08T00:22:53.876Z,9.36
2022-11-08T00:23:50.372Z,9.44
2022-11-08T00:24:47.161Z,9.56
2022-11-08T00:25:43.604Z,9.49
2022-11-08T00:26:40.096Z,9.42
2022-11-08T00:27:36.585Z,9.35
2022-11-08T00:28:33.081Z,9.30
2022-11-08T00:29:29.702Z,9.29
2022-11-08T00:30:26.237Z,9.24
2022-11-08T00:31:22.694Z,9.25
2022-11-08T00:32:23.507Z,9.20
2022-11-08T00:33:19.994Z,9.16
2022-11-08T00:34:16.494Z,9.12
2022-11-08T00:35:13.745Z,9.07
2022-11-08T00:36:10.297Z,9.07
2022-11-08T00:37:06.803Z,9.08
2022-11-08T00:38:04.250Z,9.09
2022-11-08T00:39:00.718Z,9.10
2022-11-08T00:39:57.188Z,9.15
2022-11-08T00:40:53.683Z,9.28
2022-11-08T00:41:50.167Z,9.47
2022-11-08T00:42:46.674Z,9.62
2022-11-08T00:43:43.174Z,9.41
2022-11-08T00:44:39.685Z,9.35
2022-11-08T00:45:36.122Z,9.31
2022-11-08T00:46:32.567Z,9.41
2022-11-08T00:47:29.056Z,9.49
2022-11-08T00:48:25.571Z,9.79
2022-11-08T00:49:22.244Z,9.86
2022-11-08T00:50:18.682Z,9.80
2022-11-08T00:51:15.133Z,9.62
2022-11-08T00:52:11.662Z,9.45
2022-11-08T00:53:08.178Z,9.33
2022-11-08T00:54:05.554Z,9.31
2022-11-08T00:55:02.055Z,9.41
2022-11-08T00:56:02.508Z,9.54
2022-11-08T00:56:59.031Z,9.91
2022-11-08T00:58:00.006Z,10.10
2022-11-08T00:58:57.788Z,10.18
2022-11-08T00:59:54.236Z,10.00
2022-11-08T01:00:50.718Z,9.82
2022-11-08T01:01:47.668Z,9.71
2022-11-08T01:02:44.243Z,9.77
2022-11-08T01:03:40.831Z,9.61
2022-11-08T01:04:37.300Z,9.47
2022-11-08T01:05:36.551Z,9.38
2022-11-08T01:06:32.999Z,9.29
2022-11-08T01:07:29.462Z,9.36
2022-11-08T01:08:25.976Z,9.52
2022-11-08T01:09:22.485Z,9.51
2022-11-08T01:10:18.942Z,9.60
2022-11-08T01:11:17.066Z,9.50
2022-11-08T01:12:13.510Z,9.46
2022-11-08T01:13:10.097Z,9.48
2022-11-08T01:14:06.740Z,9.50
2022-11-08T01:15:03.316Z,9.49
2022-11-08T01:16:05.486Z,8.63
2022-11-08T01:17:01.922Z,9.39
2022-11-08T01:17:58.374Z,9.46
2022-11-08T01:18:55.495Z,9.34
2022-11-08T01:19:51.957Z,9.28
2022-11-08T01:20:49.140Z,9.22
2022-11-08T01:21:45.758Z,9.04
2022-11-08T01:22:42.942Z,9.05
2022-11-08T01:23:39.694Z,9.04
2022-11-08T01:24:36.190Z,9.00
2022-11-08T01:25:35.426Z,9.05
2022-11-08T01:26:31.930Z,9.14
2022-11-08T01:27:28.358Z,9.14
2022-11-08T01:28:24.861Z,9.20
2022-11-08T01:29:21.320Z,9.24
2022-11-08T01:30:17.851Z,9.32
2022-11-08T01:31:19.046Z,9.54
2022-11-08T01:32:15.510Z,9.52
2022-11-08T01:33:12.408Z,9.65
2022-11-08T01:34:08.880Z,9.60
2022-11-08T01:35:05.746Z,9.47
2022-11-08T01:36:02.204Z,9.53
2022-11-08T01:36:58.779Z,9.41
2022-11-08T01:37:55.212Z,9.34
2022-11-08T01:38:52.101Z,9.50
2022-11-08T01:39:48.564Z,9.42
2022-11-08T01:40:46.426Z,9.34
2022-11-08T01:41:42.893Z,9.44
2022-11-08T01:42:39.721Z,9.39
2022-11-08T01:43:46.514Z,9.27
2022-11-08T01:44:57.406Z,9.54
2022-11-08T01:46:16.414Z,9.27
2022-11-08T01:47:12.933Z,9.22
2022-11-08T01:48:09.955Z,9.17
2022-11-08T01:49:06.443Z,9.08
2022-11-08T01:50:08.770Z,9.02
2022-11-08T01:51:07.007Z,9.00
2022-11-08T01:52:21.202Z,8.96
2022-11-08T01:53:17.722Z,8.99
2022-11-08T01:54:17.739Z,8.98
2022-11-08T01:55:18.679Z,8.95
2022-11-08T01:56:15.504Z,8.95
2022-11-08T01:57:14.837Z,8.91
2022-11-08T01:58:15.014Z,8.91
2022-11-08T01:59:12.584Z,8.90
2022-11-08T02:00:10.381Z,8.91
2022-11-08T02:01:07.004Z,8.93
2022-11-08T02:02:04.457Z,9.00
2022-11-08T02:03:01.706Z,8.95
2022-11-08T02:03:58.546Z,8.98
2022-11-08T02:04:55.227Z,8.97
2022-11-08T02:05:51.747Z,8.93
2022-11-08T02:06:48.659Z,8.90
2022-11-08T02:07:45.163Z,8.87
2022-11-08T02:08:42.627Z,8.82
2022-11-08T02:09:40.130Z,8.81
2022-11-08T02:10:38.038Z,8.79
2022-11-08T02:11:34.752Z,8.76
2022-11-08T02:12:31.222Z,8.79
2022-11-08T02:13:28.734Z,8.79
2022-11-08T02:14:25.158Z,8.78
2022-11-08T02:15:22.898Z,8.75
2022-11-08T02:16:19.352Z,8.79
2022-11-08T02:17:16.113Z,8.82
2022-11-08T02:18:13.300Z,8.80
2022-11-08T02:19:11.548Z,8.85
2022-11-08T02:20:08.214Z,8.88
2022-11-08T02:21:14.769Z,8.86
2022-11-08T02:22:24.830Z,8.83
2022-11-08T02:23:26.903Z,8.84
2022-11-08T02:24:23.474Z,8.87
2022-11-08T02:25:20.007Z,8.93
2022-11-08T02:26:17.873Z,8.95
2022-11-08T02:27:14.837Z,8.98
2022-11-08T02:28:11.298Z,8.99
2022-11-08T02:29:28.257Z,8.97
2022-11-08T02:30:24.778Z,8.95
2022-11-08T02:31:21.498Z,8.94
2022-11-08T02:32:18.029Z,8.93
2022-11-08T02:33:21.807Z,8.92
2022-11-08T02:34:18.782Z,8.90
2022-11-08T02:35:17.442Z,8.92
2022-11-08T02:36:15.682Z,8.84
2022-11-08T02:37:14.682Z,8.82
2022-11-08T02:38:11.177Z,8.84
2022-11-08T02:39:08.485Z,8.83
2022-11-08T02:40:05.740Z,8.81
2022-11-08T02:41:02.181Z,8.79
2022-11-08T02:41:58.866Z,8.77
2022-11-08T02:42:55.374Z,8.77
2022-11-08T02:43:51.817Z,8.79
2022-11-08T02:44:48.742Z,8.77
2022-11-08T02:45:45.448Z,8.72
2022-11-08T02:46:41.933Z,8.71
2022-11-08T02:47:38.391Z,8.23
2022-11-08T02:48:34.947Z,8.69
2022-11-08T02:49:31.642Z,8.70
2022-11-08T02:50:28.078Z,8.71
2022-11-08T02:51:24.525Z,8.70
2022-11-08T02:52:20.997Z,8.70
2022-11-08T02:53:17.692Z,8.70
2022-11-08T02:54:14.169Z,8.69
2022-11-08T02:55:10.716Z,8.79
2022-11-08T02:56:07.295Z,8.79
2022-11-08T02:57:03.736Z,8.78
2022-11-08T02:58:00.557Z,8.80
2022-11-08T02:58:57.246Z,8.83
2022-11-08T02:59:53.713Z,8.79
2022-11-08T03:00:50.212Z,8.77
2022-11-08T03:01:46.837Z,8.81
2022-11-08T03:02:43.441Z,8.85
2022-11-08T03:03:39.936Z,8.84
2022-11-08T03:04:36.494Z,8.82
2022-11-08T03:05:33.454Z,8.82
2022-11-08T03:06:29.962Z,8.83
2022-11-08T03:07:26.469Z,8.85
2022-11-08T03:08:22.960Z,8.87
2022-11-08T03:09:19.422Z,8.86
2022-11-08T03:10:16.181Z,8.86
2022-11-08T03:11:12.744Z,8.85
2022-11-08T03:12:09.205Z,8.82
2022-11-08T03:13:06.212Z,9.01
2022-11-08T03:14:02.803Z,9.02
2022-11-08T03:14:59.278Z,9.35
2022-11-08T03:15:55.753Z,9.19
2022-11-08T03:16:52.227Z,9.19
2022-11-08T03:17:48.719Z,9.14
2022-11-08T03:18:45.252Z,8.97
2022-11-08T03:19:41.756Z,8.87
2022-11-08T03:20:38.302Z,8.90
2022-11-08T03:21:36.530Z,8.91
2022-11-08T03:22:32.995Z,9.06
2022-11-08T03:23:29.504Z,8.98
2022-11-08T03:24:26.051Z,8.94
2022-11-08T03:25:22.525Z,8.94
2022-11-08T03:26:18.987Z,8.95
2022-11-08T03:27:15.460Z,8.98
2022-11-08T03:28:12.028Z,8.98
2022-11-08T03:29:08.535Z,8.94
2022-11-08T03:30:06.293Z,8.99
2022-11-08T03:31:02.740Z,8.95
2022-11-08T03:31:59.246Z,8.93
2022-11-08T03:32:55.761Z,8.93
2022-11-08T03:33:52.224Z,8.93
2022-11-08T03:34:48.731Z,9.01
2022-11-08T03:35:45.208Z,9.01
2022-11-08T03:36:41.699Z,9.04
2022-11-08T03:37:38.157Z,9.05
2022-11-08T03:38:34.687Z,9.00
2022-11-08T03:39:31.208Z,9.00
2022-11-08T03:40:27.754Z,9.04
2022-11-08T03:41:24.220Z,9.08
2022-11-08T03:42:20.694Z,9.08
2022-11-08T03:43:17.178Z,9.07
2022-11-08T03:44:13.899Z,9.05
2022-11-08T03:45:11.369Z,9.01
2022-11-08T03:46:07.821Z,9.01
2022-11-08T03:47:04.361Z,9.01
2022-11-08T03:48:00.974Z,9.04
2022-11-08T03:48:57.437Z,9.06
2022-11-08T03:49:53.953Z,9.24
2022-11-08T03:50:51.851Z,9.30
2022-11-08T03:51:48.381Z,9.30
2022-11-08T03:52:52.294Z,9.42
2022-11-08T03:53:48.831Z,9.51
2022-11-08T03:54:45.322Z,9.49
2022-11-08T03:55:41.793Z,9.39
2022-11-08T03:56:38.277Z,9.45
2022-11-08T03:57:34.719Z,9.34
2022-11-08T03:58:31.190Z,9.28
2022-11-08T03:59:27.700Z,9.26
2022-11-08T04:00:26.003Z,9.24
2022-11-08T04:01:22.501Z,9.17
2022-11-08T04:02:19.132Z,9.28
2022-11-08T04:03:15.714Z,9.41
2022-11-08T04:04:12.299Z,9.50
2022-11-08T04:05:09.689Z,9.30
2022-11-08T04:06:06.364Z,9.24
2022-11-08T04:07:02.870Z,9.08
2022-11-08T04:08:00.685Z,9.13
2022-11-08T04:08:57.224Z,9.20
2022-11-08T04:09:53.708Z,9.19
2022-11-08T04:10:50.183Z,9.19
2022-11-08T04:12:05.054Z,9.18
2022-11-08T04:13:20.072Z,9.16
2022-11-08T04:14:35.208Z,9.17
2022-11-08T04:15:31.854Z,9.07
2022-11-08T04:16:29.857Z,9.04
2022-11-08T04:17:46.315Z,9.02
2022-11-08T04:19:01.574Z,9.02
2022-11-08T04:20:16.593Z,9.02
2022-11-08T04:21:22.414Z,9.19
2022-11-08T04:22:18.891Z,9.20
2022-11-08T04:23:16.471Z,9.24
2022-11-08T04:24:13.193Z,9.24
2022-11-08T04:25:09.818Z,9.06
2022-11-08T04:26:07.835Z,9.08
2022-11-08T04:27:04.326Z,9.10
2022-11-08T04:28:00.769Z,9.14
2022-11-08T04:29:01.160Z,9.12
2022-11-08T04:29:57.605Z,9.05
2022-11-08T04:30:58.294Z,8.99
2022-11-08T04:31:54.755Z,8.90
2022-11-08T04:32:51.196Z,8.79
2022-11-08T04:33:47.658Z,8.70
2022-11-08T04:34:44.104Z,8.68
2022-11-08T04:35:40.556Z,8.69
2022-11-08T04:36:37.022Z,8.77
2022-11-08T04:37:33.471Z,8.79
2022-11-08T04:38:30.860Z,8.85
2022-11-08T04:39:27.290Z,8.84
2022-11-08T04:40:23.731Z,9.04
2022-11-08T04:41:24.178Z,9.09
2022-11-08T04:42:20.701Z,9.13
2022-11-08T04:43:17.162Z,9.31
2022-11-08T04:44:15.585Z,9.35
2022-11-08T04:45:12.079Z,9.30
2022-11-08T04:46:09.963Z,9.29
2022-11-08T04:47:06.533Z,9.37
2022-11-08T04:48:03.039Z,9.14
2022-11-08T04:49:00.017Z,9.12
2022-11-08T04:49:56.477Z,9.06
2022-11-08T04:50:52.975Z,9.07
2022-11-08T04:51:49.457Z,9.15
2022-11-08T04:52:51.563Z,9.15
2022-11-08T04:53:48.023Z,9.14
2022-11-08T04:54:45.458Z,9.14
2022-11-08T04:55:41.894Z,9.15
2022-11-08T04:56:38.369Z,9.18
2022-11-08T04:57:35.043Z,9.18
2022-11-08T04:58:35.267Z,9.06
2022-11-08T04:59:31.754Z,9.06
2022-11-08T05:00:28.262Z,9.14
2022-11-08T05:01:26.096Z,9.11
2022-11-08T05:02:22.812Z,9.29
2022-11-08T05:03:19.358Z,9.28
2022-11-08T05:04:15.884Z,9.24
2022-11-08T05:05:12.364Z,9.10
2022-11-08T05:06:13.336Z,9.04
2022-11-08T05:07:09.809Z,9.10
2022-11-08T05:08:06.545Z,9.25
2022-11-08T05:09:03.113Z,9.22
2022-11-08T05:10:02.330Z,9.25
2022-11-08T05:11:02.218Z,9.20
2022-11-08T05:11:58.647Z,9.17
2022-11-08T05:12:55.968Z,9.15
2022-11-08T05:13:52.683Z,9.17
2022-11-08T05:14:49.231Z,9.06
2022-11-08T05:15:45.713Z,8.97
2022-11-08T05:16:42.187Z,8.99
2022-11-08T05:17:38.726Z,8.92
2022-11-08T05:18:35.177Z,8.89
2022-11-08T05:19:50.561Z,8.85
2022-11-08T05:21:11.511Z,8.90
2022-11-08T05:22:26.903Z,8.96
2022-11-08T05:23:26.065Z,8.98
2022-11-08T05:24:22.539Z,9.02
2022-11-08T05:25:19.026Z,9.06
2022-11-08T05:26:16.549Z,9.03
2022-11-08T05:27:13.009Z,9.04
2022-11-08T05:28:09.442Z,9.07
2022-11-08T05:29:06.102Z,9.13
2022-11-08T05:30:02.714Z,9.15
2022-11-08T05:30:59.286Z,9.18
2022-11-08T05:31:55.745Z,9.21
2022-11-08T05:32:52.931Z,9.24
2022-11-08T05:33:49.432Z,9.23
2022-11-08T05:34:45.870Z,9.11
2022-11-08T05:35:42.418Z,9.09
2022-11-08T05:36:38.865Z,9.01
2022-11-08T05:37:35.280Z,8.95
2022-11-08T05:38:31.966Z,8.93
2022-11-08T05:39:32.091Z,8.94
2022-11-08T05:40:33.130Z,8.90
2022-11-08T05:41:30.314Z,8.89
2022-11-08T05:42:26.822Z,8.87
2022-11-08T05:43:23.266Z,8.88
2022-11-08T05:44:19.693Z,8.92
2022-11-08T05:45:16.244Z,8.95
2022-11-08T05:46:12.886Z,9.01
2022-11-08T05:47:09.373Z,8.96
2022-11-08T05:48:06.177Z,8.95
2022-11-08T05:49:03.195Z,8.95
2022-11-08T05:49:59.684Z,8.97
2022-11-08T05:50:56.358Z,8.99
2022-11-08T05:51:52.830Z,9.06
2022-11-08T05:52:49.361Z,9.15
2022-11-08T05:53:48.594Z,9.27
2022-11-08T05:54:45.261Z,9.45
2022-11-08T05:55:41.857Z,9.44
2022-11-08T05:56:38.410Z,9.37
2022-11-08T05:57:34.912Z,9.40
2022-11-08T05:58:32.570Z,9.40
2022-11-08T05:59:29.154Z,9.43
2022-11-08T06:00:25.651Z,9.43
2022-11-08T06:01:22.232Z,9.42
2022-11-08T06:02:18.835Z,9.36
2022-11-08T06:03:19.703Z,9.40
2022-11-08T06:04:19.041Z,9.38
2022-11-08T06:05:15.604Z,9.42
2022-11-08T06:06:16.682Z,9.40
2022-11-08T06:07:13.158Z,9.34
2022-11-08T06:08:09.895Z,9.26
2022-11-08T06:09:06.349Z,9.36
2022-11-08T06:10:03.614Z,9.50
2022-11-08T06:11:07.419Z,9.44
2022-11-08T06:12:04.010Z,9.28
2022-11-08T06:13:03.682Z,9.26
2022-11-08T06:14:00.159Z,9.28
2022-11-08T06:14:56.643Z,9.36
2022-11-08T06:15:53.083Z,9.29
2022-11-08T06:16:49.518Z,9.33
2022-11-08T06:17:45.987Z,9.38
2022-11-08T06:18:42.614Z,9.25
2022-11-08T06:19:39.144Z,9.35
2022-11-08T06:20:35.582Z,9.33
2022-11-08T06:21:32.076Z,9.40
2022-11-08T06:22:31.007Z,9.44
2022-11-08T06:23:28.100Z,9.47
2022-11-08T06:24:24.582Z,9.53
2022-11-08T06:25:21.503Z,9.58
2022-11-08T06:26:17.927Z,9.58
2022-11-08T06:27:14.742Z,9.65
2022-11-08T06:28:13.207Z,9.65
2022-11-08T06:29:09.957Z,9.67
2022-11-08T06:30:06.759Z,9.63
2022-11-08T06:31:03.900Z,9.60
2022-11-08T06:32:00.451Z,9.68
2022-11-08T06:32:58.891Z,9.60
2022-11-08T06:33:55.372Z,9.64
2022-11-08T06:34:51.810Z,9.62
2022-11-08T06:35:48.278Z,9.74
2022-11-08T06:36:44.762Z,9.59
2022-11-08T06:37:41.217Z,9.69
2022-11-08T06:38:37.722Z,9.58
2022-11-08T06:39:34.262Z,9.62
2022-11-08T06:40:32.293Z,9.56
2022-11-08T06:41:30.037Z,9.62
2022-11-08T06:42:26.714Z,9.58
2022-11-08T06:43:23.555Z,9.63
2022-11-08T06:44:20.312Z,9.59
2022-11-08T06:45:16.898Z,9.53
2022-11-08T06:46:13.471Z,9.58
2022-11-08T06:47:09.986Z,9.58
2022-11-08T06:48:07.460Z,9.58
2022-11-08T06:49:03.940Z,9.59
2022-11-08T06:50:00.477Z,9.08
2022-11-08T06:50:56.917Z,9.62
2022-11-08T06:51:53.393Z,9.59
2022-11-08T06:52:55.596Z,9.63
2022-11-08T06:53:52.116Z,9.57
2022-11-08T06:54:48.598Z,9.58
2022-11-08T06:55:45.052Z,9.63
2022-11-08T06:56:41.539Z,9.60
2022-11-08T06:57:38.056Z,9.58
2022-11-08T06:58:34.687Z,9.58
2022-11-08T06:59:31.155Z,9.62
2022-11-08T07:00:28.103Z,9.54
2022-11-08T07:01:24.704Z,9.56
2022-11-08T07:02:21.389Z,9.57
2022-11-08T07:03:18.460Z,9.63
2022-11-08T07:04:15.197Z,9.66
2022-11-08T07:05:12.467Z,9.63
2022-11-08T07:06:09.019Z,9.61
2022-11-08T07:07:05.483Z,9.65
2022-11-08T07:08:02.377Z,9.63
2022-11-08T07:08:58.951Z,9.69
2022-11-08T07:09:59.490Z,9.69
2022-11-08T07:11:00.185Z,9.77
2022-11-08T07:11:56.798Z,9.73
2022-11-08T07:12:59.187Z,9.69
2022-11-08T07:13:55.718Z,9.73
2022-11-08T07:14:52.175Z,9.77
2022-11-08T07:15:48.738Z,9.78
2022-11-08T07:16:45.245Z,9.74
2022-11-08T07:17:41.829Z,9.77
2022-11-08T07:18:38.320Z,9.84
2022-11-08T07:19:34.865Z,9.94
2022-11-08T07:20:31.570Z,9.99
2022-11-08T07:21:28.033Z,10.01
2022-11-08T07:22:25.776Z,10.07
2022-11-08T07:23:22.587Z,10.06
2022-11-08T07:24:19.442Z,10.18
2022-11-08T07:25:16.069Z,9.71
2022-11-08T07:26:13.619Z,10.25
2022-11-08T07:27:10.073Z,10.34
2022-11-08T07:28:08.023Z,10.33
2022-11-08T07:29:04.484Z,10.33
2022-11-08T07:30:01.034Z,10.47
2022-11-08T07:30:59.225Z,10.32
2022-11-08T07:31:55.801Z,10.43
2022-11-08T07:32:52.668Z,10.57
2022-11-08T07:33:49.419Z,10.45
2022-11-08T07:34:45.864Z,10.44
2022-11-08T07:35:44.466Z,10.49
2022-11-08T07:36:41.033Z,10.59
2022-11-08T07:37:37.483Z,10.74
2022-11-08T07:38:33.975Z,10.69
2022-11-08T07:39:30.422Z,10.38
2022-11-08T07:40:26.938Z,11.12
2022-11-08T07:41:23.427Z,10.93
2022-11-08T07:42:19.879Z,10.94
2022-11-08T07:43:16.625Z,11.31
2022-11-08T07:44:13.146Z,11.36
2022-11-08T07:45:10.294Z,11.48
2022-11-08T07:46:06.825Z,11.71
2022-11-08T07:47:03.292Z,11.60
2022-11-08T07:48:02.643Z,11.33
2022-11-08T07:49:00.804Z,11.43
2022-11-08T07:49:57.275Z,11.42
2022-11-08T07:50:54.172Z,11.62
2022-11-08T07:51:50.648Z,11.70
2022-11-08T07:52:49.454Z,11.83
2022-11-08T07:53:45.983Z,11.77
2022-11-08T07:54:42.600Z,11.70
2022-11-08T07:55:40.214Z,11.58
2022-11-08T07:56:36.723Z,11.58
2022-11-08T07:57:33.304Z,11.63
2022-11-08T07:58:29.857Z,11.81
2022-11-08T07:59:26.373Z,11.79
2022-11-08T08:00:22.902Z,12.07
2022-11-08T08:01:19.371Z,12.21
2022-11-08T08:02:16.143Z,12.10
2022-11-08T08:03:14.117Z,11.88
2022-11-08T08:04:12.237Z,11.94
2022-11-08T08:05:09.066Z,11.99
2022-11-08T08:06:05.586Z,12.32
2022-11-08T08:07:02.106Z,12.62
2022-11-08T08:07:59.390Z,12.95
2022-11-08T08:08:55.870Z,13.00
2022-11-08T08:09:52.352Z,13.21
2022-11-08T08:10:48.884Z,13.12
2022-11-08T08:11:45.374Z,13.22
2022-11-08T08:12:42.029Z,13.08
2022-11-08T08:13:38.604Z,13.09
2022-11-08T08:14:35.134Z,13.05
2022-11-08T08:15:32.013Z,12.92
2022-11-08T08:16:28.492Z,12.70
2022-11-08T08:17:24.972Z,13.01
2022-11-08T08:18:21.778Z,13.11
2022-11-08T08:19:18.261Z,13.35
2022-11-08T08:20:15.063Z,12.96
2022-11-08T08:21:11.494Z,12.57
2022-11-08T08:22:08.258Z,12.34
2022-11-08T08:23:05.859Z,12.53
2022-11-08T08:24:02.292Z,12.52
2022-11-08T08:25:02.860Z,12.30
2022-11-08T08:26:01.451Z,12.16
2022-11-08T08:26:57.989Z,11.87
2022-11-08T08:27:55.535Z,12.18
2022-11-08T08:28:52.004Z,12.32
2022-11-08T08:29:48.548Z,12.17
2022-11-08T08:30:45.031Z,12.08
2022-11-08T08:31:41.462Z,12.30
2022-11-08T08:32:37.899Z,12.12
2022-11-08T08:33:34.828Z,12.02
2022-11-08T08:34:31.509Z,12.24
2022-11-08T08:35:28.008Z,12.47
2022-11-08T08:36:24.490Z,12.36
2022-11-08T08:37:20.945Z,12.52
2022-11-08T08:38:17.725Z,12.41
2022-11-08T08:39:14.415Z,12.08
2022-11-08T08:40:11.202Z,12.10
2022-11-08T08:41:08.033Z,11.96
2022-11-08T08:42:04.488Z,12.09
2022-11-08T08:43:03.230Z,12.16
2022-11-08T08:43:59.786Z,12.22
2022-11-08T08:44:56.280Z,12.30
2022-11-08T08:45:52.829Z,12.27
2022-11-08T08:46:49.310Z,12.40
2022-11-08T08:47:50.413Z,12.52
2022-11-08T08:48:46.962Z,12.45
2022-11-08T08:49:43.444Z,12.23
2022-11-08T08:50:40.160Z,12.07
2022-11-08T08:51:36.669Z,11.79
2022-11-08T08:52:33.104Z,12.17
2022-11-08T08:53:29.651Z,11.99
2022-11-08T08:54:29.397Z,12.11
2022-11-08T08:55:28.933Z,12.52
2022-11-08T08:56:25.472Z,12.53
2022-11-08T08:57:21.918Z,12.34
2022-11-08T08:58:18.902Z,12.25
2022-11-08T09:01:48.987Z,12.14
2022-11-08T09:02:45.451Z,12.21
2022-11-08T09:03:42.030Z,12.17
2022-11-08T09:04:39.210Z,12.19
2022-11-08T09:05:35.804Z,12.38
2022-11-08T09:06:32.499Z,12.75
2022-11-08T09:07:29.020Z,12.49
2022-11-08T09:08:25.761Z,12.37
2022-11-08T09:09:22.769Z,12.12
2022-11-08T09:10:19.307Z,12.35
2022-11-08T09:11:15.871Z,12.65
2022-11-08T09:12:14.630Z,12.69
2022-11-08T09:13:11.372Z,12.48
2022-11-08T09:14:07.861Z,12.44
2022-11-08T09:15:05.258Z,12.33
2022-11-08T09:16:02.936Z,12.71
2022-11-08T09:16:59.473Z,12.92
2022-11-08T09:17:56.753Z,13.15
2022-11-08T09:18:53.404Z,13.47
2022-11-08T09:19:54.394Z,13.18
2022-11-08T09:20:56.211Z,13.10
2022-11-08T09:21:52.858Z,13.15
2022-11-08T09:22:49.411Z,13.12
2022-11-08T09:23:45.847Z,13.27
2022-11-08T09:24:42.268Z,13.33
2022-11-08T09:25:38.726Z,13.24
2022-11-08T09:26:35.207Z,13.12
2022-11-08T09:27:32.127Z,13.25
2022-11-08T09:28:31.660Z,13.16
2022-11-08T09:29:28.264Z,13.10
2022-11-08T09:30:24.911Z,13.13
2022-11-08T09:31:21.350Z,13.46
2022-11-08T09:32:28.744Z,13.65
2022-11-08T09:33:30.232Z,13.39
2022-11-08T09:34:26.742Z,13.17
2022-11-08T09:35:23.418Z,13.34
2022-11-08T09:36:19.954Z,13.37
2022-11-08T09:37:16.402Z,13.64
2022-11-08T09:38:12.906Z,13.61
2022-11-08T09:39:09.362Z,13.81
2022-11-08T09:40:06.125Z,14.09
2022-11-08T09:41:11.695Z,14.00
2022-11-08T09:42:11.161Z,13.68
2022-11-08T09:43:26.154Z,13.50
2022-11-08T09:44:41.405Z,13.70
2022-11-08T09:45:41.906Z,13.58
2022-11-08T09:46:43.255Z,13.68
2022-11-08T09:47:41.089Z,13.79
2022-11-08T09:48:40.368Z,13.69
2022-11-08T09:49:41.278Z,13.63
2022-11-08T09:50:39.624Z,14.16
2022-11-08T09:51:36.909Z,14.24
2022-11-08T09:52:34.890Z,13.74
2022-11-08T09:53:35.429Z,14.06
2022-11-08T09:54:35.035Z,14.17
2022-11-08T09:55:35.502Z,14.42
2022-11-08T09:56:34.637Z,14.11
2022-11-08T09:57:35.813Z,14.14
2022-11-08T09:58:32.240Z,14.05
2022-11-08T09:59:33.392Z,14.26
2022-11-08T10:00:29.984Z,14.25
2022-11-08T10:01:27.565Z,14.09
2022-11-08T10:02:24.555Z,13.34
2022-11-08T10:03:23.515Z,13.49
2022-11-08T10:04:22.427Z,13.65
2022-11-08T10:05:19.529Z,13.57
2022-11-08T10:06:31.420Z,13.65
2022-11-08T10:07:43.147Z,14.00
2022-11-08T10:08:42.489Z,13.92
2022-11-08T10:09:45.156Z,14.60
2022-11-08T10:10:55.400Z,14.57
2022-11-08T10:11:52.159Z,13.73
2022-11-08T10:12:53.793Z,14.14
2022-11-08T10:14:04.742Z,14.49
2022-11-08T10:15:13.565Z,14.70
2022-11-08T10:16:39.455Z,14.01
2022-11-08T10:17:54.418Z,14.61
2022-11-08T10:19:09.623Z,14.49
2022-11-08T10:20:33.078Z,14.83
2022-11-08T10:21:32.533Z,15.06
2022-11-08T10:22:35.642Z,14.86
2022-11-08T10:23:50.641Z,14.92
2022-11-08T10:25:05.815Z,15.54
2022-11-08T10:26:08.219Z,15.37
2022-11-08T10:27:11.221Z,15.58
2022-11-08T10:28:08.506Z,15.99
2022-11-08T10:29:09.282Z,15.69
2022-11-08T10:30:07.728Z,15.50
2022-11-08T10:31:04.311Z,15.58
2022-11-08T10:32:27.335Z,15.57
2022-11-08T10:33:29.155Z,15.07
2022-11-08T10:34:28.990Z,15.57
2022-11-08T10:35:31.162Z,15.70
2022-11-08T10:36:32.046Z,15.90
2022-11-08T10:37:28.661Z,16.28
2022-11-08T10:38:33.603Z,16.24
2022-11-08T10:39:34.373Z,15.94
2022-11-08T10:40:38.608Z,16.12
2022-11-08T10:41:38.253Z,15.79
2022-11-08T10:42:40.359Z,15.81
2022-11-08T10:43:47.009Z,15.53
2022-11-08T10:44:44.017Z,15.56
2022-11-08T10:45:40.646Z,15.55
2022-11-08T10:46:39.839Z,14.98
2022-11-08T10:47:37.142Z,14.64
2022-11-08T10:48:34.390Z,15.12
2022-11-08T10:49:33.583Z,15.31
2022-11-08T10:50:35.161Z,15.46
2022-11-08T10:51:31.752Z,15.27
2022-11-08T10:52:32.328Z,15.11
2022-11-08T10:53:30.044Z,14.99
2022-11-08T10:54:52.716Z,15.13
2022-11-08T10:55:51.031Z,15.07
2022-11-08T10:56:55.144Z,15.12
2022-11-08T10:57:51.602Z,14.89
2022-11-08T10:58:48.064Z,14.65
2022-11-08T10:59:45.167Z,14.24
2022-11-08T11:00:41.648Z,14.48
2022-11-08T11:01:44.873Z,14.73
2022-11-08T11:02:43.135Z,14.91
2022-11-08T11:03:39.669Z,14.48
2022-11-08T11:04:36.141Z,14.64
2022-11-08T11:05:36.925Z,14.43
2022-11-08T11:06:33.525Z,13.89
2022-11-08T11:07:34.740Z,14.36
2022-11-08T11:08:31.642Z,14.58
2022-11-08T11:09:28.371Z,14.45
2022-11-08T11:10:30.521Z,14.88
2022-11-08T11:11:35.057Z,14.84
2022-11-08T11:12:31.514Z,14.76
2022-11-08T11:13:28.648Z,14.99
2022-11-08T11:14:25.351Z,15.11
2022-11-08T11:15:21.802Z,14.67
2022-11-08T11:16:18.293Z,14.96
2022-11-08T11:17:16.794Z,14.69
2022-11-08T11:18:36.177Z,14.97
2022-11-08T11:19:32.674Z,15.30
2022-11-08T11:20:29.549Z,15.15
2022-11-08T11:21:26.053Z,15.34
2022-11-08T11:22:29.906Z,15.15
2022-11-08T11:23:37.419Z,15.15
2022-11-08T11:24:37.285Z,15.09
2022-11-08T11:25:33.793Z,14.93
2022-11-08T11:26:32.368Z,15.14
2022-11-08T11:27:31.201Z,15.20
2022-11-08T11:28:27.867Z,15.10
2022-11-08T11:29:27.078Z,15.27
2022-11-08T11:30:25.514Z,14.82
2022-11-08T11:31:21.985Z,15.16
2022-11-08T11:32:26.032Z,14.53
2022-11-08T11:33:26.765Z,15.02
2022-11-08T11:34:40.453Z,15.33
2022-11-08T11:36:10.685Z,15.48
2022-11-08T11:37:09.676Z,15.55
2022-11-08T11:38:07.915Z,15.36
2022-11-08T11:39:12.543Z,15.34
2022-11-08T11:40:09.123Z,15.50
2022-11-08T11:41:15.166Z,14.88
2022-11-08T11:42:39.346Z,15.08
2022-11-08T11:44:00.341Z,14.96
2022-11-08T11:45:06.393Z,15.28
2022-11-08T11:46:11.893Z,15.29
2022-11-08T11:47:28.637Z,15.65
2022-11-08T11:48:30.179Z,15.75
2022-11-08T11:49:29.208Z,15.33
2022-11-08T11:50:45.451Z,15.73
2022-11-08T11:51:41.989Z,14.71
2022-11-08T11:52:38.691Z,14.97
2022-11-08T11:53:38.815Z,14.71
2022-11-08T11:54:36.005Z,15.09
2022-11-08T11:55:42.694Z,15.30
2022-11-08T11:56:42.777Z,15.46
2022-11-08T11:57:44.918Z,15.64
2022-11-08T11:58:41.741Z,15.66
2022-11-08T11:59:56.545Z,15.77
2022-11-08T12:01:14.220Z,15.47
2022-11-08T12:02:30.179Z,15.60
2022-11-08T12:03:26.761Z,15.49
2022-11-08T12:04:32.625Z,14.93
2022-11-08T12:05:29.979Z,14.72
2022-11-08T12:06:26.547Z,15.02
2022-11-08T12:07:33.057Z,15.58
2022-11-08T12:08:41.469Z,15.40
2022-11-08T12:09:45.529Z,15.47
2022-11-08T12:10:42.000Z,15.74
2022-11-08T12:11:38.613Z,15.69
2022-11-08T12:12:50.496Z,15.67
2022-11-08T12:14:04.621Z,15.02
2022-11-08T12:15:13.165Z,15.05
2022-11-08T12:16:21.909Z,14.91
2022-11-08T12:17:37.087Z,14.82
2022-11-08T12:18:52.712Z,15.16
2022-11-08T12:20:08.165Z,15.53
2022-11-08T12:21:17.729Z,15.47
2022-11-08T12:22:22.249Z,15.53
2022-11-08T12:23:18.709Z,15.41
2022-11-08T12:24:30.409Z,15.66
2022-11-08T12:25:29.854Z,15.68
2022-11-08T12:26:41.918Z,15.21
2022-11-08T12:27:58.158Z,15.03
2022-11-08T12:29:13.214Z,15.38
2022-11-08T12:30:11.952Z,15.48
2022-11-08T12:31:15.269Z,15.55
2022-11-08T12:32:11.810Z,15.19
2022-11-08T12:33:16.917Z,15.45
2022-11-08T12:34:19.563Z,15.71
2022-11-08T12:35:25.925Z,15.71
2022-11-08T12:36:27.360Z,15.97
2022-11-08T12:37:23.794Z,16.24
2022-11-08T12:38:23.270Z,16.12
2022-11-08T12:39:23.520Z,15.93
2022-11-08T12:40:39.243Z,16.08
2022-11-08T12:41:35.742Z,15.99
2022-11-08T12:42:55.199Z,15.73
2022-11-08T12:44:05.108Z,16.10
2022-11-08T12:45:04.273Z,16.20
2022-11-08T12:46:04.533Z,16.22
2022-11-08T12:47:27.361Z,16.18
2022-11-08T12:48:23.851Z,16.76
2022-11-08T12:49:26.496Z,16.65
2022-11-08T12:50:31.041Z,16.48
2022-11-08T12:51:42.852Z,16.55
2022-11-08T12:52:39.299Z,16.28
2022-11-08T12:53:48.892Z,15.94
2022-11-08T12:54:51.457Z,16.17
2022-11-08T12:55:48.570Z,16.11
2022-11-08T12:56:48.201Z,16.04
2022-11-08T12:57:45.371Z,15.91
2022-11-08T12:58:44.534Z,15.93